createdAt,value
2018-03-24T00:00:04.608Z,1001.49
2018-03-24T00:01:04.561Z,1001.49
2018-03-24T00:02:04.500Z,1001.46
2018-03-24T00:03:04.447Z,1001.47
2018-03-24T00:04:04.394Z,1001.44
2018-03-24T00:05:04.341Z,1001.46
2018-03-24T00:06:04.289Z,1001.47
2018-03-24T00:07:04.234Z,1001.44
2018-03-24T00:08:04.181Z,1001.49
2018-03-24T00:09:04.137Z,1001.44
2018-03-24T00:10:04.074Z,1001.45
2018-03-24T00:11:04.023Z,1001.44
2018-03-24T00:12:03.968Z,1001.42
2018-03-24T00:13:03.917Z,1001.42
2018-03-24T00:14:03.862Z,1001.43
2018-03-24T00:15:03.812Z,1001.46
2018-03-24T00:16:03.756Z,1001.42
2018-03-24T00:17:03.706Z,1001.40
2018-03-24T00:18:03.650Z,1001.39
2018-03-24T00:19:03.598Z,1001.45
2018-03-24T00:20:03.545Z,1001.48
2018-03-24T00:21:03.491Z,1001.48
2018-03-24T00:22:03.437Z,1001.45
2018-03-24T00:23:03.384Z,1001.45
2018-03-24T00:24:03.332Z,1001.44
2018-03-24T00:25:03.283Z,1001.43
2018-03-24T00:26:03.226Z,1001.49
2018-03-24T00:27:03.173Z,1001.47
2018-03-24T00:28:03.120Z,1001.47
2018-03-24T00:29:03.068Z,1001.44
2018-03-24T00:30:03.014Z,1001.46
2018-03-24T00:31:02.964Z,1001.44
2018-03-24T00:32:02.965Z,1001.41
2018-03-24T00:33:02.907Z,1001.41
2018-03-24T00:34:02.806Z,1001.39
2018-03-24T00:35:02.751Z,1001.35
2018-03-24T00:36:02.698Z,1001.39
2018-03-24T00:37:02.645Z,1001.34
2018-03-24T00:38:02.597Z,1001.38
2018-03-24T00:39:02.539Z,1001.34
2018-03-24T00:40:02.494Z,1001.36
2018-03-24T00:41:02.434Z,1001.34
2018-03-24T00:42:02.380Z,1001.35
2018-03-24T00:43:02.329Z,1001.34
2018-03-24T00:44:02.286Z,1001.35
2018-03-24T00:45:02.273Z,1001.36
2018-03-24T00:46:02.169Z,1001.36
2018-03-24T00:47:02.117Z,1001.39
2018-03-24T00:48:02.069Z,1001.40
2018-03-24T00:49:02.014Z,1001.39
2018-03-24T00:50:01.975Z,1001.38
2018-03-24T00:51:01.906Z,1001.39
2018-03-24T00:52:01.854Z,1001.38
2018-03-24T00:53:01.803Z,1001.41
2018-03-24T00:54:01.747Z,1001.42
2018-03-24T00:55:01.695Z,1001.40
2018-03-24T00:56:01.642Z,1001.42
2018-03-24T00:57:01.590Z,1001.41
2018-03-24T00:58:01.536Z,1001.38
2018-03-24T00:59:01.486Z,1001.39
2018-03-24T01:00:01.432Z,1001.43
2018-03-24T01:01:01.379Z,1001.39
2018-03-24T01:02:01.331Z,1001.36
2018-03-24T01:03:01.274Z,1001.35
2018-03-24T01:04:01.222Z,1001.36
2018-03-24T01:05:01.169Z,1001.30
2018-03-24T01:06:01.116Z,1001.29
2018-03-24T01:07:01.067Z,1001.30
2018-03-24T01:08:01.011Z,1001.27
2018-03-24T01:09:00.959Z,1001.23
2018-03-24T01:10:00.905Z,1001.18
2018-03-24T01:11:00.852Z,1001.18
2018-03-24T01:12:00.800Z,1001.18
2018-03-24T01:13:00.751Z,1001.19
2018-03-24T01:14:00.694Z,1001.16
2018-03-24T01:15:00.692Z,1001.15
2018-03-24T01:16:00.588Z,1001.16
2018-03-24T01:17:00.536Z,1001.11
2018-03-24T01:18:00.504Z,1001.13
2018-03-24T01:19:00.430Z,1001.15
2018-03-24T01:20:00.377Z,1001.13
2018-03-24T01:21:00.324Z,1001.16
2018-03-24T01:22:00.271Z,1001.12
2018-03-24T01:23:00.268Z,1001.13
2018-03-24T01:24:00.165Z,1001.09
2018-03-24T01:25:00.113Z,1001.13
2018-03-24T01:26:00.061Z,1001.09
2018-03-24T01:27:00.007Z,1001.09
2018-03-24T01:27:59.954Z,1001.11
2018-03-24T01:28:59.907Z,1001.05
2018-03-24T01:29:59.848Z,1001.08
2018-03-24T01:30:59.800Z,1001.08
2018-03-24T01:31:59.743Z,1001.06
2018-03-24T01:32:59.689Z,1001.09
2018-03-24T01:33:59.635Z,1001.09
2018-03-24T01:34:59.583Z,1001.10
2018-03-24T01:35:59.538Z,1001.07
2018-03-24T01:36:59.478Z,1001.07
2018-03-24T01:37:59.424Z,1001.04
2018-03-24T01:38:59.371Z,1001.02
2018-03-24T01:39:59.318Z,1001.04
2018-03-24T01:40:59.266Z,1001.04
2018-03-24T01:41:59.217Z,1001.00
2018-03-24T01:42:59.160Z,1001.00
2018-03-24T01:43:59.107Z,1001.01
2018-03-24T01:44:59.054Z,1000.99
2018-03-24T01:45:59.001Z,1001.00
2018-03-24T01:46:58.949Z,1001.01
2018-03-24T01:47:58.896Z,1001.04
2018-03-24T01:48:58.844Z,1001.02
2018-03-24T01:49:58.790Z,1001.01
2018-03-24T01:50:58.737Z,1001.00
2018-03-24T01:51:58.685Z,1000.99
2018-03-24T01:52:58.632Z,1000.98
2018-03-24T01:53:58.584Z,1000.92
2018-03-24T01:54:58.526Z,1000.96
2018-03-24T01:55:58.474Z,1000.99
2018-03-24T01:56:58.421Z,1000.95
2018-03-24T01:57:58.367Z,1000.94
2018-03-24T01:58:58.315Z,1000.93
2018-03-24T01:59:58.266Z,1000.95
2018-03-24T02:00:58.209Z,1001.00
2018-03-24T02:01:58.163Z,1000.94
2018-03-24T02:02:58.103Z,1000.97
2018-03-24T02:03:58.057Z,1000.96
2018-03-24T02:04:57.999Z,1000.94
2018-03-24T02:05:57.944Z,1000.95
2018-03-24T02:06:57.891Z,1000.94
2018-03-24T02:07:57.839Z,1000.93
2018-03-24T02:08:57.785Z,1000.94
2018-03-24T02:09:57.732Z,1000.90
2018-03-24T02:10:57.679Z,1000.91
2018-03-24T02:11:57.626Z,1000.91
2018-03-24T02:12:57.573Z,1000.90
2018-03-24T02:13:57.528Z,1000.85
2018-03-24T02:14:57.467Z,1000.83
2018-03-24T02:15:57.414Z,1000.83
2018-03-24T02:16:57.362Z,1000.84
2018-03-24T02:17:57.314Z,1000.85
2018-03-24T02:18:57.255Z,1000.83
2018-03-24T02:19:57.203Z,1000.82
2018-03-24T02:20:57.149Z,1000.78
2018-03-24T02:21:57.096Z,1000.78
2018-03-24T02:22:57.042Z,1000.77
2018-03-24T02:23:56.993Z,1000.74
2018-03-24T02:24:56.937Z,1000.79
2018-03-24T02:25:56.885Z,1000.74
2018-03-24T02:26:56.831Z,1000.78
2018-03-24T02:27:56.778Z,1000.76
2018-03-24T02:28:56.726Z,1000.72
2018-03-24T02:29:56.671Z,1000.72
2018-03-24T02:30:56.619Z,1000.72
2018-03-24T02:31:56.567Z,1000.67
2018-03-24T02:32:56.514Z,1000.72
2018-03-24T02:33:56.459Z,1000.70
2018-03-24T02:34:56.406Z,1000.72
2018-03-24T02:35:56.356Z,1000.75
2018-03-24T02:36:56.303Z,1000.72
2018-03-24T02:37:56.248Z,1000.78
2018-03-24T02:38:56.195Z,1000.73
2018-03-24T02:39:56.142Z,1000.72
2018-03-24T02:40:56.089Z,1000.77
2018-03-24T02:41:56.039Z,1000.72
2018-03-24T02:42:55.983Z,1000.74
2018-03-24T02:43:55.930Z,1000.71
2018-03-24T02:44:55.876Z,1000.74
2018-03-24T02:45:55.829Z,1000.76
2018-03-24T02:46:55.772Z,1000.73
2018-03-24T02:47:55.718Z,1000.73
2018-03-24T02:48:55.666Z,1000.68
2018-03-24T02:49:55.613Z,1000.72
2018-03-24T02:50:55.560Z,1000.69
2018-03-24T02:51:55.506Z,1000.64
2018-03-24T02:52:55.455Z,1000.64
2018-03-24T02:53:55.401Z,1000.61
2018-03-24T02:54:55.348Z,1000.64
2018-03-24T02:55:55.296Z,1000.65
2018-03-24T02:56:55.244Z,1000.66
2018-03-24T02:57:55.189Z,1000.68
2018-03-24T02:58:55.136Z,1000.68
2018-03-24T02:59:55.084Z,1000.66
2018-03-24T03:00:55.032Z,1000.66
2018-03-24T03:01:54.977Z,1000.67
2018-03-24T03:02:54.924Z,1000.67
2018-03-24T03:03:54.871Z,1000.65
2018-03-24T03:04:54.819Z,1000.67
2018-03-24T03:05:54.765Z,1000.70
2018-03-24T03:06:54.713Z,1000.68
2018-03-24T03:07:54.660Z,1000.71
2018-03-24T03:08:54.613Z,1000.68
2018-03-24T03:09:54.553Z,1000.65
2018-03-24T03:10:54.500Z,1000.64
2018-03-24T03:11:54.448Z,1000.66
2018-03-24T03:12:54.448Z,1000.66
2018-03-24T03:13:54.341Z,1000.69
2018-03-24T03:14:54.288Z,1000.71
2018-03-24T03:15:54.236Z,1000.66
2018-03-24T03:16:54.183Z,1000.71
2018-03-24T03:17:54.136Z,1000.70
2018-03-24T03:18:54.077Z,1000.72
2018-03-24T03:19:54.024Z,1000.71
2018-03-24T03:20:53.971Z,1000.69
2018-03-24T03:21:53.919Z,1000.68
2018-03-24T03:22:53.866Z,1000.69
2018-03-24T03:23:53.812Z,1000.67
2018-03-24T03:24:53.760Z,1000.70
2018-03-24T03:25:53.707Z,1000.69
2018-03-24T03:26:53.654Z,1000.74
2018-03-24T03:27:53.634Z,1000.71
2018-03-24T03:28:53.548Z,1000.69
2018-03-24T03:29:53.495Z,1000.72
2018-03-24T03:30:53.443Z,1000.73
2018-03-24T03:31:53.390Z,1000.73
2018-03-24T03:32:53.338Z,1000.72
2018-03-24T03:33:53.283Z,1000.73
2018-03-24T03:34:53.231Z,1000.72
2018-03-24T03:35:53.177Z,1000.71
2018-03-24T03:36:53.125Z,1000.74
2018-03-24T03:37:53.072Z,1000.72
2018-03-24T03:38:53.019Z,1000.68
2018-03-24T03:39:52.966Z,1000.71
2018-03-24T03:40:52.914Z,1000.71
2018-03-24T03:41:52.860Z,1000.69
2018-03-24T03:42:52.808Z,1000.71
2018-03-24T03:43:52.755Z,1000.75
2018-03-24T03:44:52.702Z,1000.72
2018-03-24T03:45:52.649Z,1000.71
2018-03-24T03:46:52.596Z,1000.76
2018-03-24T03:47:52.543Z,1000.71
2018-03-24T03:48:52.491Z,1000.73
2018-03-24T03:49:52.437Z,1000.73
2018-03-24T03:50:52.385Z,1000.71
2018-03-24T03:51:52.337Z,1000.72
2018-03-24T03:52:52.295Z,1000.73
2018-03-24T03:53:52.326Z,1000.71
2018-03-24T03:54:52.183Z,1000.71
2018-03-24T03:55:52.121Z,1000.70
2018-03-24T03:56:52.068Z,1000.74
2018-03-24T03:57:52.017Z,1000.69
2018-03-24T03:58:51.962Z,1000.68
2018-03-24T03:59:51.961Z,1000.68
2018-03-24T04:00:51.857Z,1000.65
2018-03-24T04:01:51.803Z,1000.67
2018-03-24T04:02:51.750Z,1000.73
2018-03-24T04:03:51.698Z,1000.71
2018-03-24T04:04:51.645Z,1000.68
2018-03-24T04:05:51.597Z,1000.69
2018-03-24T04:06:51.540Z,1000.69
2018-03-24T04:07:51.486Z,1000.66
2018-03-24T04:08:51.433Z,1000.67
2018-03-24T04:09:51.380Z,1000.68
2018-03-24T04:10:51.327Z,1000.70
2018-03-24T04:11:51.275Z,1000.67
2018-03-24T04:12:51.222Z,1000.69
2018-03-24T04:13:51.168Z,1000.69
2018-03-24T04:14:51.116Z,1000.72
2018-03-24T04:15:51.063Z,1000.68
2018-03-24T04:16:51.010Z,1000.72
2018-03-24T04:17:50.957Z,1000.71
2018-03-24T04:18:50.905Z,1000.72
2018-03-24T04:19:50.852Z,1000.68
2018-03-24T04:20:50.799Z,1000.72
2018-03-24T04:21:50.746Z,1000.70
2018-03-24T04:22:50.693Z,1000.69
2018-03-24T04:23:50.641Z,1000.69
2018-03-24T04:24:50.639Z,1000.67
2018-03-24T04:25:50.534Z,1000.66
2018-03-24T04:26:50.484Z,1000.74
2018-03-24T04:27:50.428Z,1000.68
2018-03-24T04:28:50.378Z,1000.70
2018-03-24T04:29:50.322Z,1000.72
2018-03-24T04:30:50.270Z,1000.69
2018-03-24T04:31:50.217Z,1000.73
2018-03-24T04:32:50.164Z,1000.68
2018-03-24T04:33:50.110Z,1000.65
2018-03-24T04:34:50.058Z,1000.70
2018-03-24T04:35:50.005Z,1000.67
2018-03-24T04:36:49.952Z,1000.68
2018-03-24T04:37:49.948Z,1000.70
2018-03-24T04:38:49.846Z,1000.70
2018-03-24T04:39:49.793Z,1000.71
2018-03-24T04:40:49.740Z,1000.68
2018-03-24T04:41:49.686Z,1000.69
2018-03-24T04:42:49.634Z,1000.72
2018-03-24T04:43:49.580Z,1000.71
2018-03-24T04:44:49.528Z,1000.70
2018-03-24T04:45:49.478Z,1000.74
2018-03-24T04:46:49.421Z,1000.76
2018-03-24T04:47:49.369Z,1000.78
2018-03-24T04:48:49.316Z,1000.73
2018-03-24T04:49:49.262Z,1000.76
2018-03-24T04:50:49.209Z,1000.76
2018-03-24T04:51:49.159Z,1000.82
2018-03-24T04:52:49.154Z,1000.78
2018-03-24T04:53:49.050Z,1000.81
2018-03-24T04:54:48.998Z,1000.73
2018-03-24T04:55:48.949Z,1000.79
2018-03-24T04:56:48.892Z,1000.79
2018-03-24T04:57:48.839Z,1000.82
2018-03-24T04:58:48.786Z,1000.78
2018-03-24T04:59:48.733Z,1000.83
2018-03-24T05:00:48.681Z,1000.78
2018-03-24T05:01:48.627Z,1000.78
2018-03-24T05:02:48.576Z,1000.84
2018-03-24T05:03:48.539Z,1000.81
2018-03-24T05:04:48.471Z,1000.82
2018-03-24T05:05:48.416Z,1000.81
2018-03-24T05:06:48.363Z,1000.84
2018-03-24T05:07:48.310Z,1000.84
2018-03-24T05:08:48.257Z,1000.82
2018-03-24T05:09:48.203Z,1000.82
2018-03-24T05:10:48.150Z,1000.85
2018-03-24T05:11:48.098Z,1000.87
2018-03-24T05:12:48.045Z,1000.87
2018-03-24T05:13:47.992Z,1000.89
2018-03-24T05:14:47.939Z,1000.90
2018-03-24T05:15:47.886Z,1000.89
2018-03-24T05:16:47.833Z,1000.88
2018-03-24T05:17:47.780Z,1000.89
2018-03-24T05:18:47.727Z,1000.90
2018-03-24T05:19:47.674Z,1000.87
2018-03-24T05:20:47.624Z,1000.87
2018-03-24T05:21:47.569Z,1000.87
2018-03-24T05:22:47.516Z,1000.84
2018-03-24T05:23:47.463Z,1000.84
2018-03-24T05:24:47.411Z,1000.87
2018-03-24T05:25:47.357Z,1000.91
2018-03-24T05:26:47.308Z,1000.85
2018-03-24T05:27:47.251Z,1000.87
2018-03-24T05:28:47.199Z,1000.86
2018-03-24T05:29:47.146Z,1000.89
2018-03-24T05:30:47.092Z,1000.94
2018-03-24T05:31:47.045Z,1000.91
2018-03-24T05:32:46.988Z,1000.92
2018-03-24T05:33:46.934Z,1000.91
2018-03-24T05:34:46.882Z,1000.89
2018-03-24T05:35:46.829Z,1000.93
2018-03-24T05:36:46.777Z,1000.93
2018-03-24T05:37:46.725Z,1000.93
2018-03-24T05:38:46.670Z,1000.97
2018-03-24T05:39:46.617Z,1000.97
2018-03-24T05:40:46.565Z,1000.97
2018-03-24T05:41:46.515Z,1001.00
2018-03-24T05:42:46.462Z,1000.96
2018-03-24T05:43:46.406Z,1001.02
2018-03-24T05:44:46.504Z,1001.03
2018-03-24T05:45:46.300Z,1001.06
2018-03-24T05:46:46.255Z,1001.05
2018-03-24T05:47:46.227Z,1001.06
2018-03-24T05:48:46.252Z,1001.07
2018-03-24T05:49:46.089Z,1001.08
2018-03-24T05:50:46.037Z,1001.04
2018-03-24T05:51:45.984Z,1001.09
2018-03-24T05:52:45.932Z,1001.10
2018-03-24T05:53:45.879Z,1001.02
2018-03-24T05:54:45.826Z,1001.05
2018-03-24T05:55:45.773Z,1001.08
2018-03-24T05:56:45.771Z,1001.07
2018-03-24T05:57:45.669Z,1001.13
2018-03-24T05:58:45.616Z,1001.12
2018-03-24T05:59:45.563Z,1001.12
2018-03-24T06:00:45.511Z,1001.12
2018-03-24T06:01:45.457Z,1001.14
2018-03-24T06:02:45.406Z,1001.19
2018-03-24T06:03:45.353Z,1001.18
2018-03-24T06:04:45.301Z,1001.23
2018-03-24T06:05:45.248Z,1001.23
2018-03-24T06:06:45.195Z,1001.22
2018-03-24T06:07:45.143Z,1001.22
2018-03-24T06:08:45.094Z,1001.25
2018-03-24T06:09:45.038Z,1001.25
2018-03-24T06:10:44.986Z,1001.29
2018-03-24T06:11:44.983Z,1001.28
2018-03-24T06:12:44.881Z,1001.31
2018-03-24T06:13:44.828Z,1001.27
2018-03-24T06:14:44.775Z,1001.34
2018-03-24T06:15:44.723Z,1001.32
2018-03-24T06:16:44.671Z,1001.31
2018-03-24T06:17:44.618Z,1001.33
2018-03-24T06:18:44.568Z,1001.33
2018-03-24T06:19:44.513Z,1001.30
2018-03-24T06:20:44.461Z,1001.36
2018-03-24T06:21:44.408Z,1001.37
2018-03-24T06:22:44.357Z,1001.41
2018-03-24T06:23:44.315Z,1001.35
2018-03-24T06:24:44.251Z,1001.37
2018-03-24T06:25:44.199Z,1001.37
2018-03-24T06:26:44.146Z,1001.40
2018-03-24T06:27:44.096Z,1001.40
2018-03-24T06:28:44.042Z,1001.39
2018-03-24T06:29:43.994Z,1001.38
2018-03-24T06:30:43.937Z,1001.41
2018-03-24T06:31:43.885Z,1001.42
2018-03-24T06:32:43.833Z,1001.40
2018-03-24T06:33:43.779Z,1001.40
2018-03-24T06:34:43.729Z,1001.43
2018-03-24T06:35:43.676Z,1001.43
2018-03-24T06:36:43.624Z,1001.45
2018-03-24T06:37:43.571Z,1001.45
2018-03-24T06:38:43.518Z,1001.44
2018-03-24T06:39:43.467Z,1001.45
2018-03-24T06:40:43.414Z,1001.44
2018-03-24T06:41:43.363Z,1001.49
2018-03-24T06:42:43.309Z,1001.48
2018-03-24T06:43:43.258Z,1001.52
2018-03-24T06:44:43.249Z,1001.50
2018-03-24T06:45:43.153Z,1001.48
2018-03-24T06:46:43.101Z,1001.49
2018-03-24T06:47:43.050Z,1001.46
2018-03-24T06:48:42.997Z,1001.48
2018-03-24T06:49:42.948Z,1001.47
2018-03-24T06:50:42.892Z,1001.48
2018-03-24T06:51:42.840Z,1001.49
2018-03-24T06:52:42.789Z,1001.52
2018-03-24T06:53:42.741Z,1001.50
2018-03-24T06:54:42.683Z,1001.53
2018-03-24T06:55:42.631Z,1001.53
2018-03-24T06:56:42.585Z,1001.56
2018-03-24T06:57:42.526Z,1001.61
2018-03-24T06:58:42.474Z,1001.53
2018-03-24T06:59:42.423Z,1001.61
2018-03-24T07:00:42.372Z,1001.58
2018-03-24T07:01:42.320Z,1001.55
2018-03-24T07:02:42.265Z,1001.57
2018-03-24T07:03:42.214Z,1001.58
2018-03-24T07:04:42.161Z,1001.55
2018-03-24T07:05:42.108Z,1001.58
2018-03-24T07:06:42.057Z,1001.60
2018-03-24T07:07:42.007Z,1001.60
2018-03-24T07:08:41.952Z,1001.60
2018-03-24T07:09:41.898Z,1001.63
2018-03-24T07:10:41.847Z,1001.64
2018-03-24T07:11:41.795Z,1001.65
2018-03-24T07:12:41.746Z,1001.64
2018-03-24T07:13:41.691Z,1001.67
2018-03-24T07:14:41.640Z,1001.70
2018-03-24T07:15:41.589Z,1001.71
2018-03-24T07:16:41.535Z,1001.71
2018-03-24T07:17:41.483Z,1001.75
2018-03-24T07:18:41.431Z,1001.75
2018-03-24T07:19:41.380Z,1001.73
2018-03-24T07:20:41.327Z,1001.77
2018-03-24T07:21:41.275Z,1001.76
2018-03-24T07:22:41.223Z,1001.80
2018-03-24T07:23:41.171Z,1001.80
2018-03-24T07:24:41.120Z,1001.82
2018-03-24T07:25:41.067Z,1001.88
2018-03-24T07:26:41.015Z,1001.90
2018-03-24T07:27:40.964Z,1001.89
2018-03-24T07:28:40.912Z,1001.91
2018-03-24T07:29:40.859Z,1001.93
2018-03-24T07:30:40.808Z,1001.90
2018-03-24T07:31:40.756Z,1001.92
2018-03-24T07:32:40.710Z,1001.92
2018-03-24T07:33:40.653Z,1001.95
2018-03-24T07:34:40.612Z,1001.98
2018-03-24T07:35:40.550Z,1001.90
2018-03-24T07:36:40.498Z,1001.94
2018-03-24T07:37:40.446Z,1001.95
2018-03-24T07:38:40.394Z,1002.02
2018-03-24T07:39:40.343Z,1001.98
2018-03-24T07:40:40.297Z,1002.01
2018-03-24T07:41:40.244Z,1001.99
2018-03-24T07:42:40.188Z,1001.94
2018-03-24T07:43:40.137Z,1001.99
2018-03-24T07:44:40.086Z,1001.98
2018-03-24T07:45:40.033Z,1001.97
2018-03-24T07:46:39.982Z,1001.99
2018-03-24T07:47:39.990Z,1001.96
2018-03-24T07:48:39.880Z,1002.00
2018-03-24T07:49:39.827Z,1001.96
2018-03-24T07:50:39.781Z,1002.03
2018-03-24T07:51:39.728Z,1001.97
2018-03-24T07:52:39.675Z,1002.04
2018-03-24T07:53:39.622Z,1002.06
2018-03-24T07:54:39.571Z,1002.01
2018-03-24T07:55:39.521Z,1002.03
2018-03-24T07:56:39.469Z,1002.05
2018-03-24T07:57:39.417Z,1002.06
2018-03-24T07:58:39.422Z,1002.05
2018-03-24T07:59:39.315Z,1002.07
2018-03-24T08:00:39.263Z,1002.08
2018-03-24T08:01:39.211Z,1002.14
2018-03-24T08:02:39.160Z,1002.19
2018-03-24T08:03:39.111Z,1002.15
2018-03-24T08:04:39.108Z,1002.14
2018-03-24T08:05:39.006Z,1002.13
2018-03-24T08:06:38.955Z,1002.11
2018-03-24T08:07:38.904Z,1002.13
2018-03-24T08:08:38.853Z,1002.10
2018-03-24T08:09:38.852Z,1002.17
2018-03-24T08:10:38.750Z,1002.17
2018-03-24T08:11:38.699Z,1002.15
2018-03-24T08:12:38.650Z,1002.22
2018-03-24T08:13:38.596Z,1002.21
2018-03-24T08:14:38.545Z,1002.21
2018-03-24T08:15:38.494Z,1002.24
2018-03-24T08:16:38.443Z,1002.19
2018-03-24T08:17:38.391Z,1002.24
2018-03-24T08:18:38.340Z,1002.21
2018-03-24T08:19:38.289Z,1002.17
2018-03-24T08:20:38.238Z,1002.19
2018-03-24T08:21:38.186Z,1002.20
2018-03-24T08:22:38.135Z,1002.21
2018-03-24T08:23:38.086Z,1002.21
2018-03-24T08:24:38.033Z,1002.23
2018-03-24T08:25:37.981Z,1002.26
2018-03-24T08:26:37.930Z,1002.26
2018-03-24T08:27:37.879Z,1002.26
2018-03-24T08:28:37.828Z,1002.30
2018-03-24T08:29:37.776Z,1002.30
2018-03-24T08:30:37.725Z,1002.30
2018-03-24T08:31:37.676Z,1002.26
2018-03-24T08:32:37.624Z,1002.31
2018-03-24T08:33:37.572Z,1002.34
2018-03-24T08:34:37.521Z,1002.37
2018-03-24T08:35:37.471Z,1002.33
2018-03-24T08:36:37.420Z,1002.39
2018-03-24T08:37:37.367Z,1002.38
2018-03-24T08:38:37.319Z,1002.36
2018-03-24T08:39:37.267Z,1002.42
2018-03-24T08:40:37.216Z,1002.41
2018-03-24T08:41:37.165Z,1002.40
2018-03-24T08:42:37.114Z,1002.40
2018-03-24T08:43:37.063Z,1002.36
2018-03-24T08:44:37.064Z,1002.37
2018-03-24T08:45:36.961Z,1002.37
2018-03-24T08:46:36.914Z,1002.42
2018-03-24T08:47:36.861Z,1002.45
2018-03-24T08:48:36.812Z,1002.44
2018-03-24T08:49:36.759Z,1002.48
2018-03-24T08:50:36.709Z,1002.47
2018-03-24T08:51:36.659Z,1002.44
2018-03-24T08:52:36.615Z,1002.46
2018-03-24T08:53:36.557Z,1002.49
2018-03-24T08:54:36.508Z,1002.48
2018-03-24T08:55:36.458Z,1002.49
2018-03-24T08:56:36.459Z,1002.48
2018-03-24T08:57:36.357Z,1002.49
2018-03-24T08:58:36.307Z,1002.50
2018-03-24T08:59:36.256Z,1002.49
2018-03-24T09:00:36.207Z,1002.48
2018-03-24T09:01:36.156Z,1002.50
2018-03-24T09:02:36.106Z,1002.49
2018-03-24T09:03:36.057Z,1002.50
2018-03-24T09:04:36.007Z,1002.53
2018-03-24T09:05:35.955Z,1002.46
2018-03-24T09:06:35.908Z,1002.50
2018-03-24T09:07:35.856Z,1002.46
2018-03-24T09:08:35.806Z,1002.52
2018-03-24T09:09:35.756Z,1002.50
2018-03-24T09:10:35.708Z,1002.52
2018-03-24T09:11:35.657Z,1002.55
2018-03-24T09:12:35.607Z,1002.58
2018-03-24T09:13:35.557Z,1002.53
2018-03-24T09:14:35.507Z,1002.58
2018-03-24T09:15:35.458Z,1002.55
2018-03-24T09:16:35.409Z,1002.61
2018-03-24T09:17:35.358Z,1002.57
2018-03-24T09:18:35.310Z,1002.54
2018-03-24T09:19:35.259Z,1002.62
2018-03-24T09:20:35.210Z,1002.59
2018-03-24T09:21:35.159Z,1002.58
2018-03-24T09:22:35.113Z,1002.61
2018-03-24T09:23:35.061Z,1002.55
2018-03-24T09:24:35.013Z,1002.53
2018-03-24T09:25:34.961Z,1002.57
2018-03-24T09:26:34.913Z,1002.54
2018-03-24T09:27:34.866Z,1002.58
2018-03-24T09:28:34.813Z,1002.58
2018-03-24T09:29:34.763Z,1002.55
2018-03-24T09:30:34.714Z,1002.59
2018-03-24T09:31:34.666Z,1002.58
2018-03-24T09:32:34.616Z,1002.59
2018-03-24T09:33:34.567Z,1002.55
2018-03-24T09:34:34.518Z,1002.50
2018-03-24T09:35:34.469Z,1002.56
2018-03-24T09:36:34.420Z,1002.54
2018-03-24T09:37:34.370Z,1002.54
2018-03-24T09:38:34.321Z,1002.51
2018-03-24T09:39:34.273Z,1002.56
2018-03-24T09:40:34.225Z,1002.56
2018-03-24T09:41:34.174Z,1002.53
2018-03-24T09:42:34.125Z,1002.49
2018-03-24T09:43:34.077Z,1002.53
2018-03-24T09:44:34.028Z,1002.57
2018-03-24T09:45:33.979Z,1002.50
2018-03-24T09:46:33.930Z,1002.49
2018-03-24T09:47:33.882Z,1002.49
2018-03-24T09:48:33.837Z,1002.59
2018-03-24T09:49:33.786Z,1002.54
2018-03-24T09:50:33.734Z,1002.51
2018-03-24T09:51:33.687Z,1002.55
2018-03-24T09:52:33.641Z,1002.51
2018-03-24T09:53:33.592Z,1002.52
2018-03-24T09:54:33.538Z,1002.52
2018-03-24T09:55:33.490Z,1002.52
2018-03-24T09:56:33.448Z,1002.56
2018-03-24T09:57:33.398Z,1002.50
2018-03-24T09:58:33.344Z,1002.50
2018-03-24T09:59:33.296Z,1002.53
2018-03-24T10:00:33.247Z,1002.56
2018-03-24T10:01:33.198Z,1002.60
2018-03-24T10:02:33.149Z,1002.56
2018-03-24T10:03:33.101Z,1002.55
2018-03-24T10:04:33.053Z,1002.50
2018-03-24T10:05:33.004Z,1002.54
2018-03-24T10:06:32.961Z,1002.53
2018-03-24T10:07:32.908Z,1002.49
2018-03-24T10:08:32.858Z,1002.49
2018-03-24T10:09:32.809Z,1002.51
2018-03-24T10:10:32.760Z,1002.57
2018-03-24T10:11:32.712Z,1002.51
2018-03-24T10:12:32.665Z,1002.52
2018-03-24T10:13:32.616Z,1002.51
2018-03-24T10:14:32.565Z,1002.50
2018-03-24T10:15:32.518Z,1002.43
2018-03-24T10:16:32.469Z,1002.55
2018-03-24T10:17:32.424Z,1002.47
2018-03-24T10:18:32.404Z,1002.49
2018-03-24T10:19:32.325Z,1002.45
2018-03-24T10:20:32.273Z,1002.51
2018-03-24T10:21:32.226Z,1002.44
2018-03-24T10:22:32.218Z,1002.44
2018-03-24T10:23:32.129Z,1002.47
2018-03-24T10:24:32.078Z,1002.51
2018-03-24T10:25:32.029Z,1002.46
2018-03-24T10:26:31.981Z,1002.52
2018-03-24T10:27:31.932Z,1002.48
2018-03-24T10:28:31.884Z,1002.49
2018-03-24T10:29:31.835Z,1002.47
2018-03-24T10:30:31.786Z,1002.49
2018-03-24T10:31:31.737Z,1002.52
2018-03-24T10:32:31.690Z,1002.49
2018-03-24T10:33:31.645Z,1002.50
2018-03-24T10:34:31.592Z,1002.50
2018-03-24T10:35:31.544Z,1002.47
2018-03-24T10:36:31.496Z,1002.52
2018-03-24T10:37:31.446Z,1002.55
2018-03-24T10:38:31.398Z,1002.52
2018-03-24T10:39:31.353Z,1002.45
2018-03-24T10:40:31.307Z,1002.45
2018-03-24T10:41:31.296Z,1002.45
2018-03-24T10:42:31.203Z,1002.45
2018-03-24T10:43:31.156Z,1002.42
2018-03-24T10:44:31.107Z,1002.42
2018-03-24T10:45:31.059Z,1002.42
2018-03-24T10:46:31.010Z,1002.44
2018-03-24T10:47:30.963Z,1002.41
2018-03-24T10:48:30.915Z,1002.43
2018-03-24T10:49:30.870Z,1002.45
2018-03-24T10:50:30.819Z,1002.49
2018-03-24T10:51:30.773Z,1002.43
2018-03-24T10:52:30.722Z,1002.43
2018-03-24T10:53:30.676Z,1002.46
2018-03-24T10:54:30.627Z,1002.47
2018-03-24T10:55:30.579Z,1002.43
2018-03-24T10:56:30.531Z,1002.39
2018-03-24T10:57:30.534Z,1002.38
2018-03-24T10:58:30.438Z,1002.46
2018-03-24T10:59:30.389Z,1002.45
2018-03-24T11:00:30.341Z,1002.47
2018-03-24T11:01:30.294Z,1002.39
2018-03-24T11:02:30.246Z,1002.31
2018-03-24T11:03:30.199Z,1002.34
2018-03-24T11:04:30.152Z,1002.34
2018-03-24T11:05:30.107Z,1002.36
2018-03-24T11:06:30.057Z,1002.38
2018-03-24T11:07:30.010Z,1002.35
2018-03-24T11:08:29.964Z,1002.42
2018-03-24T11:09:29.914Z,1002.44
2018-03-24T11:10:29.867Z,1002.35
2018-03-24T11:11:29.819Z,1002.35
2018-03-24T11:12:29.771Z,1002.28
2018-03-24T11:13:29.723Z,1002.34
2018-03-24T11:14:29.674Z,1002.31
2018-03-24T11:15:29.647Z,1002.25
2018-03-24T11:16:29.580Z,1002.31
2018-03-24T11:17:29.530Z,1002.26
2018-03-24T11:18:29.482Z,1002.25
2018-03-24T11:19:29.434Z,1002.24
2018-03-24T11:20:29.386Z,1002.28
2018-03-24T11:21:29.338Z,1002.28
2018-03-24T11:22:29.289Z,1002.24
2018-03-24T11:23:29.240Z,1002.23
2018-03-24T11:24:29.192Z,1002.24
2018-03-24T11:25:29.149Z,1002.24
2018-03-24T11:26:29.141Z,1002.23
2018-03-24T11:27:29.046Z,1002.22
2018-03-24T11:28:29.000Z,1002.23
2018-03-24T11:29:28.948Z,1002.26
2018-03-24T11:30:28.903Z,1002.28
2018-03-24T11:31:28.852Z,1002.20
2018-03-24T11:32:28.803Z,1002.23
2018-03-24T11:33:28.754Z,1002.23
2018-03-24T11:34:28.706Z,1002.27
2018-03-24T11:35:28.657Z,1002.25
2018-03-24T11:36:28.609Z,1002.31
2018-03-24T11:37:28.561Z,1002.29
2018-03-24T11:38:28.513Z,1002.31
2018-03-24T11:39:28.465Z,1002.31
2018-03-24T11:40:28.417Z,1002.29
2018-03-24T11:41:28.368Z,1002.31
2018-03-24T11:42:28.319Z,1002.34
2018-03-24T11:43:28.272Z,1002.38
2018-03-24T11:44:28.223Z,1002.33
2018-03-24T11:45:28.175Z,1002.34
2018-03-24T11:46:28.127Z,1002.33
2018-03-24T11:47:28.079Z,1002.44
2018-03-24T11:48:28.031Z,1002.36
2018-03-24T11:49:27.983Z,1002.37
2018-03-24T11:50:27.935Z,1002.31
2018-03-24T11:51:27.886Z,1002.35
2018-03-24T11:52:27.839Z,1002.35
2018-03-24T11:53:27.790Z,1002.32
2018-03-24T11:54:27.741Z,1002.30
2018-03-24T11:55:27.695Z,1002.32
2018-03-24T11:56:27.647Z,1002.34
2018-03-24T11:57:27.597Z,1002.33
2018-03-24T11:58:27.549Z,1002.37
2018-03-24T11:59:27.501Z,1002.33
2018-03-24T12:00:27.454Z,1002.30
2018-03-24T12:01:27.405Z,1002.32
2018-03-24T12:02:27.357Z,1002.31
2018-03-24T12:03:27.310Z,1002.30
2018-03-24T12:04:27.262Z,1002.22